sensor_id;sensor_type;location;lat;lon;timestamp;noise_LAeq;noise_LA_min;noise_LA_max;noise_LA01;noise_LA95
11999;Laerm;40817;51.520;9.954;2024-03-06T00:01:01;39.93;33.44;52.76;;
11999;Laerm;40817;51.520;9.954;2024-03-06T00:03:28;39.25;32.93;45.04;;
11999;Laerm;40817;51.520;9.954;2024-03-06T00:05:56;40.35;34.31;43.72;;
11999;Laerm;40817;51.520;9.954;2024-03-06T00:08:24;39.77;34.31;43.68;;
11999;Laerm;40817;51.520;9.954;2024-03-06T00:10:52;39.01;33.44;42.53;;
11999;Laerm;40817;51.520;9.954;2024-03-06T00:13:19;39.02;32.93;42.41;;
11999;Laerm;40817;51.520;9.954;2024-03-06T00:15:46;39.21;33.90;42.09;;
11999;Laerm;40817;51.520;9.954;2024-03-06T00:18:14;38.98;31.68;41.68;;
11999;Laerm;40817;51.520;9.954;2024-03-06T00:20:41;41.85;33.44;47.84;;
11999;Laerm;40817;51.520;9.954;2024-03-06T00:23:10;40.83;33.90;55.82;;
11999;Laerm;40817;51.520;9.954;2024-03-06T00:25:39;38.44;32.93;41.89;;
11999;Laerm;40817;51.520;9.954;2024-03-06T00:28:06;38.82;32.35;42.03;;
11999;Laerm;40817;51.520;9.954;2024-03-06T00:30:33;40.87;35.04;44.27;;
11999;Laerm;40817;51.520;9.954;2024-03-06T00:33:01;39.21;31.68;54.19;;
11999;Laerm;40817;51.520;9.954;2024-03-06T00:35:28;38.98;32.93;42.29;;
11999;Laerm;40817;51.520;9.954;2024-03-06T00:37:55;39.15;34.31;42.03;;
11999;Laerm;40817;51.520;9.954;2024-03-06T00:40:23;38.41;30.89;48.00;;
11999;Laerm;40817;51.520;9.954;2024-03-06T00:42:51;39.57;33.44;42.98;;
11999;Laerm;40817;51.520;9.954;2024-03-06T00:45:19;41.62;33.90;50.02;;
11999;Laerm;40817;51.520;9.954;2024-03-06T00:47:47;40.16;33.44;45.23;;
11999;Laerm;40817;51.520;9.954;2024-03-06T00:50:14;39.05;33.44;43.49;;
11999;Laerm;40817;51.520;9.954;2024-03-06T00:52:42;38.64;32.35;51.13;;
11999;Laerm;40817;51.520;9.954;2024-03-06T00:55:10;40.08;35.36;48.05;;
11999;Laerm;40817;51.520;9.954;2024-03-06T00:57:37;39.87;34.69;51.86;;
11999;Laerm;40817;51.520;9.954;2024-03-06T01:00:08;39.55;32.93;44.19;;
11999;Laerm;40817;51.520;9.954;2024-03-06T01:02:37;40.29;34.31;44.31;;
11999;Laerm;40817;51.520;9.954;2024-03-06T01:05:05;40.55;35.66;44.43;;
11999;Laerm;40817;51.520;9.954;2024-03-06T01:07:33;40.31;36.20;42.93;;
11999;Laerm;40817;51.520;9.954;2024-03-06T01:10:01;40.77;32.35;52.85;;
11999;Laerm;40817;51.520;9.954;2024-03-06T01:12:28;43.20;36.45;57.53;;
11999;Laerm;40817;51.520;9.954;2024-03-06T01:14:56;40.86;33.90;45.39;;
11999;Laerm;40817;51.520;9.954;2024-03-06T01:17:25;39.04;33.97;43.19;;
11999;Laerm;40817;51.520;9.954;2024-03-06T01:19:52;37.95;30.89;44.54;;
11999;Laerm;40817;51.520;9.954;2024-03-06T01:22:19;40.85;32.35;46.30;;
11999;Laerm;40817;51.520;9.954;2024-03-06T01:24:46;40.27;33.90;44.80;;
11999;Laerm;40817;51.520;9.954;2024-03-06T01:27:16;37.83;32.35;42.16;;
11999;Laerm;40817;51.520;9.954;2024-03-06T01:29:43;39.30;32.93;45.36;;
11999;Laerm;40817;51.520;9.954;2024-03-06T01:32:10;38.69;31.68;45.36;;
11999;Laerm;40817;51.520;9.954;2024-03-06T01:34:40;38.70;33.90;49.64;;
11999;Laerm;40817;51.520;9.954;2024-03-06T01:37:07;38.80;33.44;41.96;;
11999;Laerm;40817;51.520;9.954;2024-03-06T01:39:34;38.86;33.44;44.27;;
11999;Laerm;40817;51.520;9.954;2024-03-06T01:42:02;39.18;33.90;42.76;;
11999;Laerm;40817;51.520;9.954;2024-03-06T01:44:30;38.41;32.93;42.06;;
11999;Laerm;40817;51.520;9.954;2024-03-06T01:46:57;39.46;32.93;42.59;;
11999;Laerm;40817;51.520;9.954;2024-03-06T01:49:25;38.80;32.93;42.53;;
11999;Laerm;40817;51.520;9.954;2024-03-06T01:51:56;39.54;33.97;44.31;;
11999;Laerm;40817;51.520;9.954;2024-03-06T01:54:26;39.49;33.44;44.83;;
11999;Laerm;40817;51.520;9.954;2024-03-06T01:56:55;43.51;35.66;52.09;;
11999;Laerm;40817;51.520;9.954;2024-03-06T01:59:23;39.34;32.93;45.01;;
11999;Laerm;40817;51.520;9.954;2024-03-06T02:01:53;39.06;33.44;43.19;;
11999;Laerm;40817;51.520;9.954;2024-03-06T02:04:20;39.69;33.90;43.49;;
11999;Laerm;40817;51.520;9.954;2024-03-06T02:06:48;42.03;32.93;47.32;;
11999;Laerm;40817;51.520;9.954;2024-03-06T02:09:16;46.32;35.36;59.84;;
11999;Laerm;40817;51.520;9.954;2024-03-06T02:11:45;42.84;35.94;49.97;;
11999;Laerm;40817;51.520;9.954;2024-03-06T02:14:13;40.09;35.36;43.63;;
11999;Laerm;40817;51.520;9.954;2024-03-06T02:16:40;39.08;32.93;43.49;;
11999;Laerm;40817;51.520;9.954;2024-03-06T02:19:08;38.55;32.93;41.53;;
11999;Laerm;40817;51.520;9.954;2024-03-06T02:21:37;39.88;33.90;44.69;;
11999;Laerm;40817;51.520;9.954;2024-03-06T02:24:04;39.11;33.44;46.64;;
11999;Laerm;40817;51.520;9.954;2024-03-06T02:26:34;40.17;33.44;52.99;;
11999;Laerm;40817;51.520;9.954;2024-03-06T02:29:02;39.40;34.69;43.14;;
11999;Laerm;40817;51.520;9.954;2024-03-06T02:31:30;38.64;31.68;45.01;;
11999;Laerm;40817;51.520;9.954;2024-03-06T02:33:58;39.08;33.44;42.29;;
11999;Laerm;40817;51.520;9.954;2024-03-06T02:36:27;39.16;32.93;42.35;;
11999;Laerm;40817;51.520;9.954;2024-03-06T02:38:55;38.19;32.35;41.75;;
11999;Laerm;40817;51.520;9.954;2024-03-06T02:41:22;39.51;33.44;43.29;;
11999;Laerm;40817;51.520;9.954;2024-03-06T02:43:50;39.52;33.90;42.82;;
11999;Laerm;40817;51.520;9.954;2024-03-06T02:46:18;37.89;32.58;42.98;;
11999;Laerm;40817;51.520;9.954;2024-03-06T02:48:45;38.36;32.35;43.24;;
11999;Laerm;40817;51.520;9.954;2024-03-06T02:51:17;37.82;32.35;42.88;;
11999;Laerm;40817;51.520;9.954;2024-03-06T02:53:44;38.51;32.35;42.03;;
11999;Laerm;40817;51.520;9.954;2024-03-06T02:56:17;39.09;32.35;43.19;;
11999;Laerm;40817;51.520;9.954;2024-03-06T02:58:45;37.75;32.35;41.46;;
11999;Laerm;40817;51.520;9.954;2024-03-06T03:01:14;44.64;33.44;57.67;;
11999;Laerm;40817;51.520;9.954;2024-03-06T03:03:42;41.17;34.69;51.29;;
11999;Laerm;40817;51.520;9.954;2024-03-06T03:06:10;38.95;34.31;45.27;;
11999;Laerm;40817;51.520;9.954;2024-03-06T03:08:39;39.39;32.35;46.10;;
11999;Laerm;40817;51.520;9.954;2024-03-06T03:11:06;44.03;31.68;61.03;;
11999;Laerm;40817;51.520;9.954;2024-03-06T03:13:35;48.37;37.70;61.66;;
11999;Laerm;40817;51.520;9.954;2024-03-06T03:16:03;39.72;32.93;43.72;;
11999;Laerm;40817;51.520;9.954;2024-03-06T03:18:30;39.10;33.90;42.88;;
11999;Laerm;40817;51.520;9.954;2024-03-06T03:20:57;38.46;31.68;43.19;;
11999;Laerm;40817;51.520;9.954;2024-03-06T03:23:24;39.78;35.04;44.07;;
11999;Laerm;40817;51.520;9.954;2024-03-06T03:25:52;39.42;32.93;43.54;;
11999;Laerm;40817;51.520;9.954;2024-03-06T03:28:19;38.42;32.93;41.82;;
11999;Laerm;40817;51.520;9.954;2024-03-06T03:30:48;39.06;33.44;41.96;;
11999;Laerm;40817;51.520;9.954;2024-03-06T03:33:15;38.99;33.90;42.90;;
11999;Laerm;40817;51.520;9.954;2024-03-06T03:35:42;43.53;35.04;52.60;;
11999;Laerm;40817;51.520;9.954;2024-03-06T03:38:10;40.38;34.69;45.07;;
11999;Laerm;40817;51.520;9.954;2024-03-06T03:40:37;39.24;33.90;43.04;;
11999;Laerm;40817;51.520;9.954;2024-03-06T03:43:04;41.27;36.20;48.03;;
11999;Laerm;40817;51.520;9.954;2024-03-06T03:45:32;41.75;34.31;54.19;;
11999;Laerm;40817;51.520;9.954;2024-03-06T03:48:02;41.81;35.66;50.24;;
11999;Laerm;40817;51.520;9.954;2024-03-06T03:50:30;40.42;35.04;53.06;;
11999;Laerm;40817;51.520;9.954;2024-03-06T03:52:58;39.80;32.93;43.39;;
11999;Laerm;40817;51.520;9.954;2024-03-06T03:55:27;40.26;34.31;47.95;;
11999;Laerm;40817;51.520;9.954;2024-03-06T03:57:54;39.75;34.69;42.76;;
11999;Laerm;40817;51.520;9.954;2024-03-06T04:00:22;40.31;35.04;44.83;;
11999;Laerm;40817;51.520;9.954;2024-03-06T04:02:50;40.29;35.36;48.32;;
11999;Laerm;40817;51.520;9.954;2024-03-06T04:05:19;40.54;35.66;43.49;;
11999;Laerm;40817;51.520;9.954;2024-03-06T04:07:47;39.37;33.90;43.89;;
11999;Laerm;40817;51.520;9.954;2024-03-06T04:10:14;40.05;35.36;47.63;;
11999;Laerm;40817;51.520;9.954;2024-03-06T04:12:41;40.72;36.10;51.60;;
11999;Laerm;40817;51.520;9.954;2024-03-06T04:15:09;40.91;33.55;49.29;;
11999;Laerm;40817;51.520;9.954;2024-03-06T04:17:37;39.79;32.93;51.00;;
11999;Laerm;40817;51.520;9.954;2024-03-06T04:20:05;39.99;34.31;51.99;;
11999;Laerm;40817;51.520;9.954;2024-03-06T04:22:35;40.64;35.94;49.82;;
11999;Laerm;40817;51.520;9.954;2024-03-06T04:25:02;40.43;36.20;50.89;;
11999;Laerm;40817;51.520;9.954;2024-03-06T04:27:31;41.01;36.69;48.78;;
11999;Laerm;40817;51.520;9.954;2024-03-06T04:29:59;42.60;37.70;52.05;;
11999;Laerm;40817;51.520;9.954;2024-03-06T04:32:26;40.85;35.94;50.12;;
11999;Laerm;40817;51.520;9.954;2024-03-06T04:34:53;40.81;36.20;49.72;;
11999;Laerm;40817;51.520;9.954;2024-03-06T04:37:22;41.00;36.69;50.98;;
11999;Laerm;40817;51.520;9.954;2024-03-06T04:39:50;40.79;35.94;43.58;;
11999;Laerm;40817;51.520;9.954;2024-03-06T04:42:17;40.74;36.20;44.83;;
11999;Laerm;40817;51.520;9.954;2024-03-06T04:44:46;41.27;36.69;50.02;;
11999;Laerm;40817;51.520;9.954;2024-03-06T04:47:13;41.34;36.45;52.37;;
11999;Laerm;40817;51.520;9.954;2024-03-06T04:49:40;41.10;35.36;50.35;;
11999;Laerm;40817;51.520;9.954;2024-03-06T04:52:08;41.29;37.12;51.15;;
11999;Laerm;40817;51.520;9.954;2024-03-06T04:54:36;41.62;37.12;49.78;;
11999;Laerm;40817;51.520;9.954;2024-03-06T04:57:05;41.80;36.20;49.57;;
11999;Laerm;40817;51.520;9.954;2024-03-06T04:59:32;42.40;38.21;52.13;;
11999;Laerm;40817;51.520;9.954;2024-03-06T05:01:59;42.44;36.91;52.02;;
11999;Laerm;40817;51.520;9.954;2024-03-06T05:04:29;41.92;37.32;53.20;;
11999;Laerm;40817;51.520;9.954;2024-03-06T05:06:56;42.53;37.52;55.86;;
11999;Laerm;40817;51.520;9.954;2024-03-06T05:09:23;43.03;35.66;54.27;;
11999;Laerm;40817;51.520;9.954;2024-03-06T05:11:50;41.70;35.94;53.09;;
11999;Laerm;40817;51.520;9.954;2024-03-06T05:14:19;42.97;38.05;55.26;;
11999;Laerm;40817;51.520;9.954;2024-03-06T05:16:46;42.23;37.52;54.43;;
11999;Laerm;40817;51.520;9.954;2024-03-06T05:19:14;42.32;36.45;52.64;;
11999;Laerm;40817;51.520;9.954;2024-03-06T05:21:41;41.50;36.91;50.15;;
11999;Laerm;40817;51.520;9.954;2024-03-06T05:24:10;40.90;36.91;47.34;;
11999;Laerm;40817;51.520;9.954;2024-03-06T05:26:37;43.04;36.10;63.76;;
11999;Laerm;40817;51.520;9.954;2024-03-06T05:29:04;41.64;37.52;51.09;;
11999;Laerm;40817;51.520;9.954;2024-03-06T05:31:33;41.47;37.12;49.90;;
11999;Laerm;40817;51.520;9.954;2024-03-06T05:34:00;42.62;37.32;55.41;;
11999;Laerm;40817;51.520;9.954;2024-03-06T05:36:28;54.25;40.23;68.32;;
11999;Laerm;40817;51.520;9.954;2024-03-06T05:38:55;54.18;43.09;64.83;;
11999;Laerm;40817;51.520;9.954;2024-03-06T05:41:22;54.61;42.93;69.35;;
11999;Laerm;40817;51.520;9.954;2024-03-06T05:43:50;43.41;39.46;46.91;;
11999;Laerm;40817;51.520;9.954;2024-03-06T05:46:17;44.00;39.34;57.53;;
11999;Laerm;40817;51.520;9.954;2024-03-06T05:48:46;41.83;38.37;44.94;;
11999;Laerm;40817;51.520;9.954;2024-03-06T05:51:14;42.04;37.32;51.91;;
11999;Laerm;40817;51.520;9.954;2024-03-06T05:53:41;44.00;38.37;55.73;;
11999;Laerm;40817;51.520;9.954;2024-03-06T05:56:09;44.86;38.81;60.84;;
11999;Laerm;40817;51.520;9.954;2024-03-06T05:58:37;42.02;38.67;51.86;;
11999;Laerm;40817;51.520;9.954;2024-03-06T06:01:04;44.06;38.18;56.34;;
11999;Laerm;40817;51.520;9.954;2024-03-06T06:03:31;44.28;39.46;59.07;;
11999;Laerm;40817;51.520;9.954;2024-03-06T06:06:00;42.38;38.21;47.93;;
11999;Laerm;40817;51.520;9.954;2024-03-06T06:08:28;42.33;36.69;56.55;;
11999;Laerm;40817;51.520;9.954;2024-03-06T06:10:56;41.41;37.53;51.44;;
11999;Laerm;40817;51.520;9.954;2024-03-06T06:13:23;42.78;37.32;48.15;;
11999;Laerm;40817;51.520;9.954;2024-03-06T06:15:50;43.58;40.23;56.97;;
11999;Laerm;40817;51.520;9.954;2024-03-06T06:18:17;46.39;39.08;67.99;;
11999;Laerm;40817;51.520;9.954;2024-03-06T06:20:44;51.89;43.80;60.38;;
11999;Laerm;40817;51.520;9.954;2024-03-06T06:23:13;50.29;40.43;60.95;;
11999;Laerm;40817;51.520;9.954;2024-03-06T06:25:40;44.64;39.70;58.91;;
11999;Laerm;40817;51.520;9.954;2024-03-06T06:28:08;42.94;38.52;59.03;;
11999;Laerm;40817;51.520;9.954;2024-03-06T06:30:36;43.12;38.37;58.20;;
11999;Laerm;40817;51.520;9.954;2024-03-06T06:33:04;43.09;38.81;52.06;;
11999;Laerm;40817;51.520;9.954;2024-03-06T06:35:32;43.69;39.58;51.53;;
11999;Laerm;40817;51.520;9.954;2024-03-06T06:38:00;43.66;40.03;48.84;;
11999;Laerm;40817;51.520;9.954;2024-03-06T06:40:29;54.24;41.89;65.61;;
11999;Laerm;40817;51.520;9.954;2024-03-06T06:42:56;45.38;39.08;58.38;;
11999;Laerm;40817;51.520;9.954;2024-03-06T06:45:25;42.96;38.52;56.23;;
11999;Laerm;40817;51.520;9.954;2024-03-06T06:47:52;42.27;36.91;51.32;;
11999;Laerm;40817;51.520;9.954;2024-03-06T06:50:20;42.04;37.88;57.99;;
11999;Laerm;40817;51.520;9.954;2024-03-06T06:52:51;44.95;39.81;59.97;;
11999;Laerm;40817;51.520;9.954;2024-03-06T06:55:19;48.22;38.81;63.15;;
11999;Laerm;40817;51.520;9.954;2024-03-06T06:57:50;46.03;38.05;65.08;;
11999;Laerm;40817;51.520;9.954;2024-03-06T07:00:18;44.26;38.95;63.77;;
11999;Laerm;40817;51.520;9.954;2024-03-06T07:02:48;46.11;39.08;67.96;;
11999;Laerm;40817;51.520;9.954;2024-03-06T07:05:16;44.77;38.81;68.21;;
11999;Laerm;40817;51.520;9.954;2024-03-06T07:07:44;46.24;38.05;67.65;;
11999;Laerm;40817;51.520;9.954;2024-03-06T07:10:11;42.81;37.70;60.09;;
11999;Laerm;40817;51.520;9.954;2024-03-06T07:12:39;42.74;37.70;54.03;;
11999;Laerm;40817;51.520;9.954;2024-03-06T07:15:08;42.71;38.21;46.64;;
11999;Laerm;40817;51.520;9.954;2024-03-06T07:17:35;45.56;38.37;67.39;;
11999;Laerm;40817;51.520;9.954;2024-03-06T07:20:04;42.87;37.70;56.51;;
11999;Laerm;40817;51.520;9.954;2024-03-06T07:22:34;42.65;37.32;63.03;;
11999;Laerm;40817;51.520;9.954;2024-03-06T07:25:02;45.69;40.03;60.36;;
11999;Laerm;40817;51.520;9.954;2024-03-06T07:27:29;43.19;38.67;53.42;;
11999;Laerm;40817;51.520;9.954;2024-03-06T07:30:02;42.53;38.21;49.59;;
11999;Laerm;40817;51.520;9.954;2024-03-06T07:32:31;43.02;37.32;59.15;;
11999;Laerm;40817;51.520;9.954;2024-03-06T07:34:58;42.69;38.37;48.95;;
11999;Laerm;40817;51.520;9.954;2024-03-06T07:37:26;46.55;38.05;70.59;;
11999;Laerm;40817;51.520;9.954;2024-03-06T07:39:53;43.04;38.05;58.74;;
11999;Laerm;40817;51.520;9.954;2024-03-06T07:42:20;42.01;37.52;48.25;;
11999;Laerm;40817;51.520;9.954;2024-03-06T07:44:48;43.72;39.70;51.87;;
11999;Laerm;40817;51.520;9.954;2024-03-06T07:47:17;48.58;41.06;55.58;;
11999;Laerm;40817;51.520;9.954;2024-03-06T07:49:45;50.12;42.59;55.70;;
11999;Laerm;40817;51.520;9.954;2024-03-06T07:52:13;50.27;42.22;55.96;;
11999;Laerm;40817;51.520;9.954;2024-03-06T07:54:40;51.21;42.76;60.46;;
11999;Laerm;40817;51.520;9.954;2024-03-06T07:57:07;48.68;39.34;64.93;;
11999;Laerm;40817;51.520;9.954;2024-03-06T07:59:35;43.42;40.03;55.03;;
11999;Laerm;40817;51.520;9.954;2024-03-06T08:02:03;50.24;39.70;69.35;;
11999;Laerm;40817;51.520;9.954;2024-03-06T08:04:30;48.25;38.95;66.73;;
11999;Laerm;40817;51.520;9.954;2024-03-06T08:06:59;44.09;39.46;54.45;;
11999;Laerm;40817;51.520;9.954;2024-03-06T08:09:26;45.24;38.81;58.27;;
11999;Laerm;40817;51.520;9.954;2024-03-06T08:11:54;43.15;37.70;54.51;;
11999;Laerm;40817;51.520;9.954;2024-03-06T08:14:21;44.82;39.70;56.28;;
11999;Laerm;40817;51.520;9.954;2024-03-06T08:16:52;43.82;38.52;61.94;;
11999;Laerm;40817;51.520;9.954;2024-03-06T08:19:20;42.18;37.88;49.32;;
11999;Laerm;40817;51.520;9.954;2024-03-06T08:21:48;42.79;37.70;53.81;;
11999;Laerm;40817;51.520;9.954;2024-03-06T08:24:17;43.55;38.67;54.26;;
11999;Laerm;40817;51.520;9.954;2024-03-06T08:26:44;44.03;38.81;57.38;;
11999;Laerm;40817;51.520;9.954;2024-03-06T08:29:11;42.94;37.88;56.66;;
11999;Laerm;40817;51.520;9.954;2024-03-06T08:31:39;43.26;38.67;57.81;;
11999;Laerm;40817;51.520;9.954;2024-03-06T08:34:06;42.70;37.88;54.22;;
11999;Laerm;40817;51.520;9.954;2024-03-06T08:36:33;42.46;36.91;55.22;;
11999;Laerm;40817;51.520;9.954;2024-03-06T08:39:00;43.68;38.95;55.13;;
11999;Laerm;40817;51.520;9.954;2024-03-06T08:41:29;43.29;37.12;57.20;;
11999;Laerm;40817;51.520;9.954;2024-03-06T08:43:57;42.32;35.36;53.49;;
11999;Laerm;40817;51.520;9.954;2024-03-06T08:46:27;42.43;37.12;51.16;;
11999;Laerm;40817;51.520;9.954;2024-03-06T08:48:57;43.04;38.37;51.84;;
11999;Laerm;40817;51.520;9.954;2024-03-06T08:51:24;43.05;39.21;54.76;;
11999;Laerm;40817;51.520;9.954;2024-03-06T08:53:51;42.93;38.67;55.07;;
11999;Laerm;40817;51.520;9.954;2024-03-06T08:56:19;43.40;38.67;53.20;;
11999;Laerm;40817;51.520;9.954;2024-03-06T08:58:47;44.82;39.92;62.14;;
11999;Laerm;40817;51.520;9.954;2024-03-06T09:01:14;44.23;40.23;55.79;;
11999;Laerm;40817;51.520;9.954;2024-03-06T09:03:42;44.14;39.81;61.42;;
11999;Laerm;40817;51.520;9.954;2024-03-06T09:06:09;45.96;39.46;61.91;;
11999;Laerm;40817;51.520;9.954;2024-03-06T09:08:36;44.14;40.43;60.42;;
11999;Laerm;40817;51.520;9.954;2024-03-06T09:11:04;45.03;39.81;61.84;;
11999;Laerm;40817;51.520;9.954;2024-03-06T09:13:31;50.10;40.43;74.38;;
11999;Laerm;40817;51.520;9.954;2024-03-06T09:16:00;44.14;40.71;56.73;;
11999;Laerm;40817;51.520;9.954;2024-03-06T09:18:27;45.62;40.23;64.88;;
11999;Laerm;40817;51.520;9.954;2024-03-06T09:20:54;49.60;40.36;64.42;;
11999;Laerm;40817;51.520;9.954;2024-03-06T09:23:21;44.11;40.71;59.72;;
11999;Laerm;40817;51.520;9.954;2024-03-06T09:25:49;43.72;40.03;53.82;;
11999;Laerm;40817;51.520;9.954;2024-03-06T09:28:16;43.25;39.92;48.95;;
11999;Laerm;40817;51.520;9.954;2024-03-06T09:30:43;43.54;39.70;59.56;;
11999;Laerm;40817;51.520;9.954;2024-03-06T09:33:12;44.01;40.43;59.99;;
11999;Laerm;40817;51.520;9.954;2024-03-06T09:35:40;43.59;40.43;55.25;;
11999;Laerm;40817;51.520;9.954;2024-03-06T09:38:11;46.04;40.33;64.46;;
11999;Laerm;40817;51.520;9.954;2024-03-06T09:40:39;44.91;39.81;60.30;;
11999;Laerm;40817;51.520;9.954;2024-03-06T09:43:07;43.62;40.13;58.60;;
11999;Laerm;40817;51.520;9.954;2024-03-06T09:45:36;43.87;39.81;50.68;;
11999;Laerm;40817;51.520;9.954;2024-03-06T09:48:04;44.14;41.53;56.29;;
11999;Laerm;40817;51.520;9.954;2024-03-06T09:50:35;44.19;40.53;58.61;;
11999;Laerm;40817;51.520;9.954;2024-03-06T09:53:08;43.84;40.23;54.64;;
11999;Laerm;40817;51.520;9.954;2024-03-06T09:55:37;43.99;40.03;54.71;;
11999;Laerm;40817;51.520;9.954;2024-03-06T09:58:05;43.36;39.92;51.05;;
11999;Laerm;40817;51.520;9.954;2024-03-06T10:00:34;48.65;38.67;63.14;;
11999;Laerm;40817;51.520;9.954;2024-03-06T10:03:03;41.91;37.52;49.73;;
11999;Laerm;40817;51.520;9.954;2024-03-06T10:05:35;44.83;37.88;58.46;;
11999;Laerm;40817;51.520;9.954;2024-03-06T10:08:04;49.88;39.21;63.47;;
11999;Laerm;40817;51.520;9.954;2024-03-06T10:10:31;43.42;37.70;59.73;;
11999;Laerm;40817;51.520;9.954;2024-03-06T10:12:59;43.30;38.21;52.31;;
11999;Laerm;40817;51.520;9.954;2024-03-06T10:15:26;43.58;38.21;48.63;;
11999;Laerm;40817;51.520;9.954;2024-03-06T10:18:13;42.92;38.81;53.81;;
11999;Laerm;40817;51.520;9.954;2024-03-06T10:20:43;46.75;39.21;59.99;;
11999;Laerm;40817;51.520;9.954;2024-03-06T10:23:12;49.06;39.08;72.16;;
11999;Laerm;40817;51.520;9.954;2024-03-06T10:25:39;53.59;41.75;67.79;;
11999;Laerm;40817;51.520;9.954;2024-03-06T10:28:08;50.50;42.03;62.77;;
11999;Laerm;40817;51.520;9.954;2024-03-06T10:30:37;50.83;43.72;63.14;;
11999;Laerm;40817;51.520;9.954;2024-03-06T10:33:09;51.41;43.04;73.30;;
11999;Laerm;40817;51.520;9.954;2024-03-06T10:35:37;52.81;44.58;72.31;;
11999;Laerm;40817;51.520;9.954;2024-03-06T10:38:07;49.79;40.98;66.82;;
11999;Laerm;40817;51.520;9.954;2024-03-06T10:40:37;46.87;39.70;64.21;;
11999;Laerm;40817;51.520;9.954;2024-03-06T10:43:07;48.93;38.95;64.63;;
11999;Laerm;40817;51.520;9.954;2024-03-06T10:45:46;42.49;36.91;55.74;;
11999;Laerm;40817;51.520;9.954;2024-03-06T10:48:15;41.73;36.91;46.71;;
11999;Laerm;40817;51.520;9.954;2024-03-06T10:50:45;43.47;38.21;64.54;;
11999;Laerm;40817;51.520;9.954;2024-03-06T10:53:16;59.79;37.88;75.21;;
11999;Laerm;40817;51.520;9.954;2024-03-06T10:55:45;41.41;37.70;50.39;;
11999;Laerm;40817;51.520;9.954;2024-03-06T10:58:13;42.48;37.70;49.15;;
11999;Laerm;40817;51.520;9.954;2024-03-06T11:00:42;54.69;40.13;64.94;;
11999;Laerm;40817;51.520;9.954;2024-03-06T11:03:12;54.41;40.80;64.52;;
11999;Laerm;40817;51.520;9.954;2024-03-06T11:05:40;43.91;39.21;53.26;;
11999;Laerm;40817;51.520;9.954;2024-03-06T11:08:10;42.23;37.88;60.02;;
11999;Laerm;40817;51.520;9.954;2024-03-06T11:10:49;47.20;37.88;65.16;;
11999;Laerm;40817;51.520;9.954;2024-03-06T11:13:24;48.75;43.19;58.40;;
11999;Laerm;40817;51.520;9.954;2024-03-06T11:15:53;52.91;46.07;66.29;;
11999;Laerm;40817;51.520;9.954;2024-03-06T11:18:45;54.68;46.07;63.41;;
11999;Laerm;40817;51.520;9.954;2024-03-06T11:21:46;55.28;45.07;66.72;;
11999;Laerm;40817;51.520;9.954;2024-03-06T11:24:20;56.26;42.59;66.66;;
11999;Laerm;40817;51.520;9.954;2024-03-06T11:26:56;44.79;40.23;61.65;;
11999;Laerm;40817;51.520;9.954;2024-03-06T11:29:29;42.87;38.37;46.84;;
11999;Laerm;40817;51.520;9.954;2024-03-06T11:32:04;43.02;38.81;53.26;;
11999;Laerm;40817;51.520;9.954;2024-03-06T11:34:34;46.04;39.21;65.55;;
11999;Laerm;40817;51.520;9.954;2024-03-06T11:37:06;42.75;39.08;48.67;;
11999;Laerm;40817;51.520;9.954;2024-03-06T11:39:38;57.99;38.67;78.63;;
11999;Laerm;40817;51.520;9.954;2024-03-06T11:42:08;56.48;39.34;66.75;;
11999;Laerm;40817;51.520;9.954;2024-03-06T11:44:36;46.24;37.32;72.20;;
11999;Laerm;40817;51.520;9.954;2024-03-06T11:47:07;49.04;37.12;68.24;;
11999;Laerm;40817;51.520;9.954;2024-03-06T11:49:35;45.63;38.81;72.96;;
11999;Laerm;40817;51.520;9.954;2024-03-06T11:52:06;42.62;38.95;55.39;;
11999;Laerm;40817;51.520;9.954;2024-03-06T11:54:34;43.56;38.95;51.73;;
11999;Laerm;40817;51.520;9.954;2024-03-06T11:57:04;43.36;39.70;49.15;;
11999;Laerm;40817;51.520;9.954;2024-03-06T11:59:36;43.69;38.37;58.61;;
11999;Laerm;40817;51.520;9.954;2024-03-06T12:02:06;42.91;39.58;55.12;;
11999;Laerm;40817;51.520;9.954;2024-03-06T12:04:35;45.32;40.13;73.40;;
11999;Laerm;40817;51.520;9.954;2024-03-06T12:07:04;44.95;40.03;62.25;;
11999;Laerm;40817;51.520;9.954;2024-03-06T12:09:34;42.14;37.12;58.64;;
11999;Laerm;40817;51.520;9.954;2024-03-06T12:12:02;47.37;38.05;72.04;;
11999;Laerm;40817;51.520;9.954;2024-03-06T12:14:29;42.73;36.69;49.96;;
11999;Laerm;40817;51.520;9.954;2024-03-06T12:17:00;45.01;38.37;56.76;;
11999;Laerm;40817;51.520;9.954;2024-03-06T12:19:33;47.63;38.05;63.17;;
11999;Laerm;40817;51.520;9.954;2024-03-06T12:22:02;45.59;36.69;57.79;;
11999;Laerm;40817;51.520;9.954;2024-03-06T12:24:30;51.35;43.54;65.38;;
11999;Laerm;40817;51.520;9.954;2024-03-06T12:27:02;51.46;43.72;69.23;;
11999;Laerm;40817;51.520;9.954;2024-03-06T12:29:33;54.16;44.51;63.88;;
11999;Laerm;40817;51.520;9.954;2024-03-06T12:32:03;55.72;44.11;68.96;;
11999;Laerm;40817;51.520;9.954;2024-03-06T12:34:31;54.24;43.94;63.62;;
11999;Laerm;40817;51.520;9.954;2024-03-06T12:37:08;56.21;45.27;64.55;;
11999;Laerm;40817;51.520;9.954;2024-03-06T12:39:36;55.92;45.11;64.97;;
11999;Laerm;40817;51.520;9.954;2024-03-06T12:42:04;53.35;44.39;61.30;;
11999;Laerm;40817;51.520;9.954;2024-03-06T12:44:32;52.31;44.31;61.08;;
11999;Laerm;40817;51.520;9.954;2024-03-06T12:46:59;51.93;44.15;65.30;;
11999;Laerm;40817;51.520;9.954;2024-03-06T12:49:28;54.50;43.72;69.13;;
11999;Laerm;40817;51.520;9.954;2024-03-06T12:51:55;54.48;45.48;78.23;;
11999;Laerm;40817;51.520;9.954;2024-03-06T12:54:23;52.78;43.55;66.71;;
11999;Laerm;40817;51.520;9.954;2024-03-06T12:56:50;54.84;43.39;74.93;;
11999;Laerm;40817;51.520;9.954;2024-03-06T12:59:17;53.27;44.87;66.39;;
11999;Laerm;40817;51.520;9.954;2024-03-06T13:01:45;50.37;43.24;57.88;;
11999;Laerm;40817;51.520;9.954;2024-03-06T13:04:13;52.68;43.39;65.71;;
11999;Laerm;40817;51.520;9.954;2024-03-06T13:06:42;48.13;42.88;61.75;;
11999;Laerm;40817;51.520;9.954;2024-03-06T13:09:09;54.55;41.96;65.67;;
11999;Laerm;40817;51.520;9.954;2024-03-06T13:11:36;56.43;46.40;64.16;;
11999;Laerm;40817;51.520;9.954;2024-03-06T13:14:03;56.78;47.55;63.48;;
11999;Laerm;40817;51.520;9.954;2024-03-06T13:16:31;57.44;49.00;64.39;;
11999;Laerm;40817;51.520;9.954;2024-03-06T13:18:58;55.93;40.03;71.38;;
11999;Laerm;40817;51.520;9.954;2024-03-06T13:21:29;43.89;40.33;52.58;;
11999;Laerm;40817;51.520;9.954;2024-03-06T13:23:57;49.99;38.95;64.64;;
11999;Laerm;40817;51.520;9.954;2024-03-06T13:26:25;42.30;38.52;49.19;;
11999;Laerm;40817;51.520;9.954;2024-03-06T13:28:52;42.58;38.05;52.84;;
11999;Laerm;40817;51.520;9.954;2024-03-06T13:31:19;43.07;39.58;47.04;;
11999;Laerm;40817;51.520;9.954;2024-03-06T13:33:47;43.58;38.81;56.23;;
11999;Laerm;40817;51.520;9.954;2024-03-06T13:36:16;46.31;39.08;66.71;;
11999;Laerm;40817;51.520;9.954;2024-03-06T13:38:43;43.47;40.43;56.02;;
11999;Laerm;40817;51.520;9.954;2024-03-06T13:41:12;48.08;39.46;63.48;;
11999;Laerm;40817;51.520;9.954;2024-03-06T13:43:39;46.56;38.52;59.51;;
11999;Laerm;40817;51.520;9.954;2024-03-06T13:46:06;42.73;37.70;58.32;;
11999;Laerm;40817;51.520;9.954;2024-03-06T13:48:34;42.74;37.70;53.68;;
11999;Laerm;40817;51.520;9.954;2024-03-06T13:51:02;42.76;38.81;50.07;;